sensor_id;sensor_type;location;lat;lon;timestamp;pressure;altitude;pressure_sealevel;temperature;humidity
76132;BME280;64877;50.994;13.650;2024-02-21T00:02:25;100314.06;;;9.09;80.45
76132;BME280;64877;50.994;13.650;2024-02-21T00:04:50;100305.78;;;8.97;80.93
76132;BME280;64877;50.994;13.650;2024-02-21T00:07:16;100301.16;;;8.99;80.86
76132;BME280;64877;50.994;13.650;2024-02-21T00:09:41;100298.72;;;8.95;80.51
76132;BME280;64877;50.994;13.650;2024-02-21T00:12:07;100291.84;;;9.05;80.44
76132;BME280;64877;50.994;13.650;2024-02-21T00:14:32;100287.31;;;9.05;80.31
76132;BME280;64877;50.994;13.650;2024-02-21T00:16:58;100287.50;;;9.02;79.96
76132;BME280;64877;50.994;13.650;2024-02-21T00:19:23;100284.69;;;9.04;79.52
76132;BME280;64877;50.994;13.650;2024-02-21T00:21:48;100277.69;;;9.01;80.15
76132;BME280;64877;50.994;13.650;2024-02-21T00:24:14;100274.63;;;9.07;79.13
76132;BME280;64877;50.994;13.650;2024-02-21T00:26:39;100278.44;;;9.03;80.04
76132;BME280;64877;50.994;13.650;2024-02-21T00:29:04;100278.06;;;9.10;79.41
76132;BME280;64877;50.994;13.650;2024-02-21T00:31:30;100268.84;;;9.14;79.36
76132;BME280;64877;50.994;13.650;2024-02-21T00:33:56;100269.63;;;9.16;79.48
76132;BME280;64877;50.994;13.650;2024-02-21T00:36:21;100266.72;;;9.19;79.20
76132;BME280;64877;50.994;13.650;2024-02-21T00:38:47;100264.59;;;9.10;79.42
76132;BME280;64877;50.994;13.650;2024-02-21T00:41:12;100265.56;;;9.09;79.20
76132;BME280;64877;50.994;13.650;2024-02-21T00:43:37;100259.59;;;9.03;79.38
76132;BME280;64877;50.994;13.650;2024-02-21T00:46:05;100251.50;;;9.03;79.89
76132;BME280;64877;50.994;13.650;2024-02-21T00:48:30;100260.84;;;9.12;79.72
76132;BME280;64877;50.994;13.650;2024-02-21T00:50:56;100244.31;;;9.18;79.23
76132;BME280;64877;50.994;13.650;2024-02-21T00:53:21;100251.94;;;9.26;79.05
76132;BME280;64877;50.994;13.650;2024-02-21T00:55:47;100249.81;;;9.31;78.67
76132;BME280;64877;50.994;13.650;2024-02-21T00:58:12;100249.41;;;9.23;77.97
76132;BME280;64877;50.994;13.650;2024-02-21T01:00:37;100244.81;;;9.25;78.88
76132;BME280;64877;50.994;13.650;2024-02-21T01:03:03;100242.88;;;9.27;78.05
76132;BME280;64877;50.994;13.650;2024-02-21T01:05:28;100243.06;;;9.24;78.37
76132;BME280;64877;50.994;13.650;2024-02-21T01:07:54;100244.41;;;9.31;78.52
76132;BME280;64877;50.994;13.650;2024-02-21T01:10:19;100235.53;;;9.29;77.28
76132;BME280;64877;50.994;13.650;2024-02-21T01:12:45;100227.28;;;9.18;77.96
76132;BME280;64877;50.994;13.650;2024-02-21T01:15:10;100224.47;;;9.19;77.76
76132;BME280;64877;50.994;13.650;2024-02-21T01:17:37;100217.06;;;9.23;78.27
76132;BME280;64877;50.994;13.650;2024-02-21T01:20:03;100213.69;;;9.19;78.75
76132;BME280;64877;50.994;13.650;2024-02-21T01:22:30;100213.69;;;9.19;78.83
76132;BME280;64877;50.994;13.650;2024-02-21T01:24:56;100210.53;;;9.27;78.40
76132;BME280;64877;50.994;13.650;2024-02-21T01:27:21;100209.94;;;9.22;78.49
76132;BME280;64877;50.994;13.650;2024-02-21T01:29:47;100207.66;;;9.16;78.56
76132;BME280;64877;50.994;13.650;2024-02-21T01:32:15;100202.25;;;9.16;78.29
76132;BME280;64877;50.994;13.650;2024-02-21T01:34:40;100196.88;;;9.16;78.19
76132;BME280;64877;50.994;13.650;2024-02-21T01:37:06;100185.88;;;9.19;78.51
76132;BME280;64877;50.994;13.650;2024-02-21T01:39:33;100193.00;;;9.20;78.48
76132;BME280;64877;50.994;13.650;2024-02-21T01:41:59;100164.72;;;9.13;78.52
76132;BME280;64877;50.994;13.650;2024-02-21T01:44:24;100170.78;;;9.16;78.52
76132;BME280;64877;50.994;13.650;2024-02-21T01:46:51;100168.09;;;9.16;78.78
76132;BME280;64877;50.994;13.650;2024-02-21T01:49:17;100152.91;;;9.15;78.58
76132;BME280;64877;50.994;13.650;2024-02-21T01:51:43;100150.56;;;9.09;78.81
76132;BME280;64877;50.994;13.650;2024-02-21T01:54:10;100158.66;;;9.09;79.37
76132;BME280;64877;50.994;13.650;2024-02-21T01:56:36;100161.84;;;9.16;79.28
76132;BME280;64877;50.994;13.650;2024-02-21T01:59:02;100154.75;;;9.00;79.23
76132;BME280;64877;50.994;13.650;2024-02-21T02:01:29;100149.53;;;8.97;80.16
76132;BME280;64877;50.994;13.650;2024-02-21T02:03:55;100156.84;;;8.95;79.89
76132;BME280;64877;50.994;13.650;2024-02-21T02:06:20;100147.81;;;8.96;80.17
76132;BME280;64877;50.994;13.650;2024-02-21T02:08:46;100143.84;;;8.88;80.60
76132;BME280;64877;50.994;13.650;2024-02-21T02:11:13;100140.31;;;8.87;80.57
76132;BME280;64877;50.994;13.650;2024-02-21T02:13:39;100138.47;;;8.88;80.60
76132;BME280;64877;50.994;13.650;2024-02-21T02:16:05;100140.31;;;8.87;80.53
76132;BME280;64877;50.994;13.650;2024-02-21T02:18:30;100140.78;;;8.79;81.59
76132;BME280;64877;50.994;13.650;2024-02-21T02:20:56;100139.72;;;8.82;81.36
76132;BME280;64877;50.994;13.650;2024-02-21T02:23:25;100146.84;;;8.83;80.96
76132;BME280;64877;50.994;13.650;2024-02-21T02:25:51;100138.19;;;8.78;81.31
76132;BME280;64877;50.994;13.650;2024-02-21T02:28:20;100141.28;;;8.86;81.16
76132;BME280;64877;50.994;13.650;2024-02-21T02:30:46;100142.13;;;8.87;80.64
76132;BME280;64877;50.994;13.650;2024-02-21T02:33:12;100134.34;;;8.82;81.52
76132;BME280;64877;50.994;13.650;2024-02-21T02:35:37;100139.34;;;8.88;81.78
76132;BME280;64877;50.994;13.650;2024-02-21T02:38:03;100128.56;;;8.88;80.43
76132;BME280;64877;50.994;13.650;2024-02-21T02:40:30;100131.34;;;8.87;80.83
76132;BME280;64877;50.994;13.650;2024-02-21T02:42:55;100126.25;;;8.82;80.96
76132;BME280;64877;50.994;13.650;2024-02-21T02:45:22;100128.94;;;8.82;81.26
76132;BME280;64877;50.994;13.650;2024-02-21T02:47:52;100128.94;;;8.82;81.31
76132;BME280;64877;50.994;13.650;2024-02-21T02:50:19;100122.19;;;8.89;81.24
76132;BME280;64877;50.994;13.650;2024-02-21T02:52:44;100123.28;;;8.87;81.09
76132;BME280;64877;50.994;13.650;2024-02-21T02:55:09;100117.31;;;8.82;81.22
76132;BME280;64877;50.994;13.650;2024-02-21T02:57:35;100113.75;;;8.81;81.36
76132;BME280;64877;50.994;13.650;2024-02-21T03:00:00;100110.97;;;8.83;81.27
76132;BME280;64877;50.994;13.650;2024-02-21T03:02:26;100106.84;;;8.77;81.15
76132;BME280;64877;50.994;13.650;2024-02-21T03:04:51;100101.44;;;8.77;80.94
76132;BME280;64877;50.994;13.650;2024-02-21T03:07:17;100104.03;;;8.78;81.12
76132;BME280;64877;50.994;13.650;2024-02-21T03:09:42;100092.13;;;8.83;80.91
76132;BME280;64877;50.994;13.650;2024-02-21T03:12:08;100092.59;;;8.75;nan
76132;BME280;64877;50.994;13.650;2024-02-21T03:14:34;100092.59;;;8.75;81.47
76132;BME280;64877;50.994;13.650;2024-02-21T03:16:59;100094.34;;;8.76;81.55
76132;BME280;64877;50.994;13.650;2024-02-21T03:19:25;100105.69;;;8.81;81.59
76132;BME280;64877;50.994;13.650;2024-02-21T03:21:54;100091.66;;;8.76;81.50
76132;BME280;64877;50.994;13.650;2024-02-21T03:24:19;100088.75;;;8.79;81.28
76132;BME280;64877;50.994;13.650;2024-02-21T03:26:46;100089.53;;;8.81;81.13
76132;BME280;64877;50.994;13.650;2024-02-21T03:29:14;100098.53;;;8.80;81.48
76132;BME280;64877;50.994;13.650;2024-02-21T03:31:40;100095.38;;;8.73;81.88
76132;BME280;64877;50.994;13.650;2024-02-21T03:34:05;100095.09;;;8.78;81.77
76132;BME280;64877;50.994;13.650;2024-02-21T03:36:30;100090.69;;;8.77;81.50
76132;BME280;64877;50.994;13.650;2024-02-21T03:38:56;100096.81;;;8.79;81.61
76132;BME280;64877;50.994;13.650;2024-02-21T03:41:21;100097.03;;;8.76;81.90
76132;BME280;64877;50.994;13.650;2024-02-21T03:43:47;100085.47;;;8.74;81.63
76132;BME280;64877;50.994;13.650;2024-02-21T03:46:13;100087.00;;;8.78;81.59
76132;BME280;64877;50.994;13.650;2024-02-21T03:48:38;100093.25;;;8.78;81.73
76132;BME280;64877;50.994;13.650;2024-02-21T03:51:04;100081.81;;;8.75;81.19
76132;BME280;64877;50.994;13.650;2024-02-21T03:53:29;100080.38;;;8.69;81.02
76132;BME280;64877;50.994;13.650;2024-02-21T03:55:55;100090.09;;;8.72;81.17
76132;BME280;64877;50.994;13.650;2024-02-21T03:58:20;100083.00;;;8.71;81.23
76132;BME280;64877;50.994;13.650;2024-02-21T04:00:46;100085.47;;;8.74;81.71
76132;BME280;64877;50.994;13.650;2024-02-21T04:03:11;100072.78;;;8.76;81.90
76132;BME280;64877;50.994;13.650;2024-02-21T04:05:37;100075.28;;;8.79;81.29
76132;BME280;64877;50.994;13.650;2024-02-21T04:08:05;100074.69;;;8.74;80.63
76132;BME280;64877;50.994;13.650;2024-02-21T04:10:31;100081.06;;;8.73;80.79
76132;BME280;64877;50.994;13.650;2024-02-21T04:12:57;100066.72;;;8.72;81.21
76132;BME280;64877;50.994;13.650;2024-02-21T04:15:22;100072.50;;;8.80;81.15
76132;BME280;64877;50.994;13.650;2024-02-21T04:17:47;100073.44;;;8.79;80.70
76132;BME280;64877;50.994;13.650;2024-02-21T04:20:16;100076.53;;;8.73;80.44
76132;BME280;64877;50.994;13.650;2024-02-21T04:22:45;100065.09;;;8.70;80.40
76132;BME280;64877;50.994;13.650;2024-02-21T04:25:11;100060.38;;;8.73;80.11
76132;BME280;64877;50.994;13.650;2024-02-21T04:27:38;100067.41;;;8.76;80.51
76132;BME280;64877;50.994;13.650;2024-02-21T04:30:04;100055.84;;;8.74;80.86
76132;BME280;64877;50.994;13.650;2024-02-21T04:32:29;100060.94;;;8.78;80.46
76132;BME280;64877;50.994;13.650;2024-02-21T04:34:55;100055.84;;;8.74;80.86
76132;BME280;64877;50.994;13.650;2024-02-21T04:37:20;100065.47;;;8.78;80.57
76132;BME280;64877;50.994;13.650;2024-02-21T04:39:48;100067.97;;;8.81;80.78
76132;BME280;64877;50.994;13.650;2024-02-21T04:42:14;100054.53;;;8.81;81.48
76132;BME280;64877;50.994;13.650;2024-02-21T04:44:39;100066.03;;;8.83;81.38
76132;BME280;64877;50.994;13.650;2024-02-21T04:47:05;100061.44;;;8.85;81.67
76132;BME280;64877;50.994;13.650;2024-02-21T04:49:30;100072.59;;;8.79;81.96
76132;BME280;64877;50.994;13.650;2024-02-21T04:51:55;100074.69;;;8.74;82.58
76132;BME280;64877;50.994;13.650;2024-02-21T04:54:21;100072.88;;;8.74;82.64
76132;BME280;64877;50.994;13.650;2024-02-21T04:56:46;100060.19;;;8.76;82.59
76132;BME280;64877;50.994;13.650;2024-02-21T04:59:12;100056.34;;;8.80;82.59
76132;BME280;64877;50.994;13.650;2024-02-21T05:01:37;100058.94;;;8.82;81.89
76132;BME280;64877;50.994;13.650;2024-02-21T05:04:02;100057.41;;;8.78;81.98
76132;BME280;64877;50.994;13.650;2024-02-21T05:06:28;100052.75;;;8.80;81.83
76132;BME280;64877;50.994;13.650;2024-02-21T05:08:53;100049.78;;;8.85;81.87
76132;BME280;64877;50.994;13.650;2024-02-21T05:11:23;100041.13;;;8.79;82.32
76132;BME280;64877;50.994;13.650;2024-02-21T05:13:50;100048.34;;;8.79;82.15
76132;BME280;64877;50.994;13.650;2024-02-21T05:16:16;100035.66;;;8.81;82.30
76132;BME280;64877;50.994;13.650;2024-02-21T05:18:41;100044.50;;;8.83;82.11
76132;BME280;64877;50.994;13.650;2024-02-21T05:21:08;100040.84;;;8.84;83.51
76132;BME280;64877;50.994;13.650;2024-02-21T05:23:33;100042.38;;;8.88;84.64
76132;BME280;64877;50.994;13.650;2024-02-21T05:25:59;100039.13;;;8.83;83.91
76132;BME280;64877;50.994;13.650;2024-02-21T05:28:24;100045.84;;;8.90;84.13
76132;BME280;64877;50.994;13.650;2024-02-21T05:30:50;100043.44;;;8.86;83.51
76132;BME280;64877;50.994;13.650;2024-02-21T05:33:15;100039.50;;;8.91;82.56
76132;BME280;64877;50.994;13.650;2024-02-21T05:35:47;100027.00;;;8.90;81.87
76132;BME280;64877;50.994;13.650;2024-02-21T05:38:13;100027.66;;;8.79;82.24
76132;BME280;64877;50.994;13.650;2024-02-21T05:40:38;100028.50;;;8.94;81.45
76132;BME280;64877;50.994;13.650;2024-02-21T05:43:04;100023.41;;;8.90;81.82
76132;BME280;64877;50.994;13.650;2024-02-21T05:45:29;100026.78;;;8.93;81.62
76132;BME280;64877;50.994;13.650;2024-02-21T05:47:55;100022.66;;;8.88;81.87
76132;BME280;64877;50.994;13.650;2024-02-21T05:50:22;100022.06;;;8.97;81.88
76132;BME280;64877;50.994;13.650;2024-02-21T05:52:51;100027.06;;;8.89;82.25
76132;BME280;64877;50.994;13.650;2024-02-21T05:55:16;100025.81;;;8.94;81.84
76132;BME280;64877;50.994;13.650;2024-02-21T05:57:42;100017.94;;;8.91;82.29
76132;BME280;64877;50.994;13.650;2024-02-21T06:00:08;100013.00;;;8.98;82.03
76132;BME280;64877;50.994;13.650;2024-02-21T06:02:39;100005.34;;;8.92;82.17
76132;BME280;64877;50.994;13.650;2024-02-21T06:05:06;100009.09;;;8.89;82.41
76132;BME280;64877;50.994;13.650;2024-02-21T06:07:33;100009.66;;;8.94;82.37
76132;BME280;64877;50.994;13.650;2024-02-21T06:09:58;99994.28;;;8.96;82.23
76132;BME280;64877;50.994;13.650;2024-02-21T06:12:24;99994.88;;;8.87;82.65
76132;BME280;64877;50.994;13.650;2024-02-21T06:14:49;99987.47;;;8.91;83.75
76132;BME280;64877;50.994;13.650;2024-02-21T06:17:14;99988.50;;;8.88;83.70
76132;BME280;64877;50.994;13.650;2024-02-21T06:19:42;99983.97;;;8.89;83.86
76132;BME280;64877;50.994;13.650;2024-02-21T06:22:07;99971.50;;;8.88;84.20
76132;BME280;64877;50.994;13.650;2024-02-21T06:24:36;99970.81;;;8.84;84.61
76132;BME280;64877;50.994;13.650;2024-02-21T06:27:05;99970.81;;;8.84;84.69
76132;BME280;64877;50.994;13.650;2024-02-21T06:29:34;99969.09;;;8.83;84.19
76132;BME280;64877;50.994;13.650;2024-02-21T06:32:00;99965.53;;;8.83;84.47
76132;BME280;64877;50.994;13.650;2024-02-21T06:34:25;99958.50;;;8.80;84.91
76132;BME280;64877;50.994;13.650;2024-02-21T06:36:51;99948.41;;;8.84;84.53
76132;BME280;64877;50.994;13.650;2024-02-21T06:39:16;99947.56;;;8.83;84.61
76132;BME280;64877;50.994;13.650;2024-02-21T06:41:42;99960.25;;;8.81;84.52
76132;BME280;64877;50.994;13.650;2024-02-21T06:44:08;99948.34;;;8.85;84.47
76132;BME280;64877;50.994;13.650;2024-02-21T06:46:33;99954.88;;;8.81;84.54
76132;BME280;64877;50.994;13.650;2024-02-21T06:48:59;99959.66;;;8.90;84.24
76132;BME280;64877;50.994;13.650;2024-02-21T06:51:26;99952.63;;;8.88;84.47
76132;BME280;64877;50.994;13.650;2024-02-21T06:53:51;99961.56;;;8.88;83.92
76132;BME280;64877;50.994;13.650;2024-02-21T06:56:17;99962.13;;;8.93;84.44
76132;BME280;64877;50.994;13.650;2024-02-21T06:58:43;99964.41;;;8.99;84.39
76132;BME280;64877;50.994;13.650;2024-02-21T07:01:08;99963.84;;;8.94;84.67
76132;BME280;64877;50.994;13.650;2024-02-21T07:03:34;99971.00;;;8.95;84.17
76132;BME280;64877;50.994;13.650;2024-02-21T07:05:59;99976.31;;;9.10;84.08
76132;BME280;64877;50.994;13.650;2024-02-21T07:08:25;99969.88;;;9.12;83.42
76132;BME280;64877;50.994;13.650;2024-02-21T07:10:51;99972.25;;;9.17;83.02
76132;BME280;64877;50.994;13.650;2024-02-21T07:13:17;99975.16;;;9.14;82.99
76132;BME280;64877;50.994;13.650;2024-02-21T07:15:43;99971.47;;;9.15;83.10
76132;BME280;64877;50.994;13.650;2024-02-21T07:18:08;99968.03;;;9.13;83.03
76132;BME280;64877;50.994;13.650;2024-02-21T07:20:33;99971.84;;;9.23;82.71
76132;BME280;64877;50.994;13.650;2024-02-21T07:23:02;99974.41;;;9.12;83.00
76132;BME280;64877;50.994;13.650;2024-02-21T07:25:27;99981.31;;;9.16;82.83
76132;BME280;64877;50.994;13.650;2024-02-21T07:27:53;99978.94;;;9.11;82.82
76132;BME280;64877;50.994;13.650;2024-02-21T07:30:18;99988.06;;;9.09;82.99
76132;BME280;64877;50.994;13.650;2024-02-21T07:32:44;99991.88;;;9.19;82.17
76132;BME280;64877;50.994;13.650;2024-02-21T07:35:09;99985.25;;;9.37;81.41
76132;BME280;64877;50.994;13.650;2024-02-21T07:37:38;100003.28;;;9.49;80.99
76132;BME280;64877;50.994;13.650;2024-02-21T07:40:12;99987.50;;;9.83;84.53
76132;BME280;64877;50.994;13.650;2024-02-21T07:42:38;99979.50;;;9.94;79.70
76132;BME280;64877;50.994;13.650;2024-02-21T07:45:04;99973.25;;;10.19;77.70
76132;BME280;64877;50.994;13.650;2024-02-21T07:47:29;99962.50;;;10.32;77.48
76132;BME280;64877;50.994;13.650;2024-02-21T07:49:55;99968.09;;;10.29;76.17
76132;BME280;64877;50.994;13.650;2024-02-21T07:52:20;99961.97;;;10.27;75.33
76132;BME280;64877;50.994;13.650;2024-02-21T07:54:46;99970.72;;;10.30;77.22
76132;BME280;64877;50.994;13.650;2024-02-21T07:57:11;99962.38;;;10.33;75.85
76132;BME280;64877;50.994;13.650;2024-02-21T07:59:37;99949.97;;;10.31;75.45
76132;BME280;64877;50.994;13.650;2024-02-21T08:02:02;99945.56;;;10.30;75.14
76132;BME280;64877;50.994;13.650;2024-02-21T08:04:32;99948.88;;;10.33;74.33
76132;BME280;64877;50.994;13.650;2024-02-21T08:06:57;99949.13;;;10.30;75.80
76132;BME280;64877;50.994;13.650;2024-02-21T08:09:26;99947.56;;;10.39;74.23
76132;BME280;64877;50.994;13.650;2024-02-21T08:11:53;99942.63;;;10.33;74.92
76132;BME280;64877;50.994;13.650;2024-02-21T08:14:19;99951.69;;;10.45;74.25
76132;BME280;64877;50.994;13.650;2024-02-21T08:16:45;99957.50;;;10.51;73.26
76132;BME280;64877;50.994;13.650;2024-02-21T08:19:10;99967.88;;;10.81;72.99
76132;BME280;64877;50.994;13.650;2024-02-21T08:21:36;99976.88;;;11.30;69.99
76132;BME280;64877;50.994;13.650;2024-02-21T08:24:01;99975.72;;;11.80;67.88
76132;BME280;64877;50.994;13.650;2024-02-21T08:26:27;99983.31;;;11.75;65.70
76132;BME280;64877;50.994;13.650;2024-02-21T08:28:55;99967.94;;;11.76;65.98
76132;BME280;64877;50.994;13.650;2024-02-21T08:31:24;99959.16;;;11.96;65.01
76132;BME280;64877;50.994;13.650;2024-02-21T08:33:49;99963.00;;;12.05;64.02
76132;BME280;64877;50.994;13.650;2024-02-21T08:36:18;99953.91;;;12.17;63.59
76132;BME280;64877;50.994;13.650;2024-02-21T08:38:45;99933.59;;;12.11;64.18
76132;BME280;64877;50.994;13.650;2024-02-21T08:41:10;99933.28;;;11.81;64.69
76132;BME280;64877;50.994;13.650;2024-02-21T08:43:36;99935.44;;;11.88;64.30
76132;BME280;64877;50.994;13.650;2024-02-21T08:46:02;99949.06;;;11.87;64.09
76132;BME280;64877;50.994;13.650;2024-02-21T08:48:27;99941.31;;;11.58;64.75
76132;BME280;64877;50.994;13.650;2024-02-21T08:50:53;99920.53;;;11.48;66.03
76132;BME280;64877;50.994;13.650;2024-02-21T08:53:19;99945.94;;;11.34;66.29
76132;BME280;64877;50.994;13.650;2024-02-21T08:55:45;99943.97;;;11.36;66.33
76132;BME280;64877;50.994;13.650;2024-02-21T08:58:11;99939.91;;;11.30;66.60
76132;BME280;64877;50.994;13.650;2024-02-21T09:00:37;99937.19;;;11.30;67.70
76132;BME280;64877;50.994;13.650;2024-02-21T09:03:02;99931.50;;;11.22;67.85
76132;BME280;64877;50.994;13.650;2024-02-21T09:05:28;99925.31;;;11.44;67.35
76132;BME280;64877;50.994;13.650;2024-02-21T09:07:53;99925.75;;;11.27;67.97
76132;BME280;64877;50.994;13.650;2024-02-21T09:10:19;99938.78;;;11.33;68.05
76132;BME280;64877;50.994;13.650;2024-02-21T09:12:45;99936.97;;;11.09;68.65
76132;BME280;64877;50.994;13.650;2024-02-21T09:15:10;99941.16;;;11.13;68.91
76132;BME280;64877;50.994;13.650;2024-02-21T09:17:36;99948.34;;;11.02;69.04
76132;BME280;64877;50.994;13.650;2024-02-21T09:20:02;99947.97;;;10.95;69.46
76132;BME280;64877;50.994;13.650;2024-02-21T09:22:29;99941.34;;;10.99;68.94
76132;BME280;64877;50.994;13.650;2024-02-21T09:24:54;99944.78;;;11.01;68.51
76132;BME280;64877;50.994;13.650;2024-02-21T09:27:19;99951.91;;;11.02;69.58
76132;BME280;64877;50.994;13.650;2024-02-21T09:29:45;99950.53;;;10.97;70.03
76132;BME280;64877;50.994;13.650;2024-02-21T09:32:10;99952.91;;;11.01;69.50
76132;BME280;64877;50.994;13.650;2024-02-21T09:34:36;99948.66;;;11.10;68.92
76132;BME280;64877;50.994;13.650;2024-02-21T09:37:01;99949.50;;;11.10;69.94
76132;BME280;64877;50.994;13.650;2024-02-21T09:39:26;99945.00;;;10.98;69.91
76132;BME280;64877;50.994;13.650;2024-02-21T09:42:00;99962.50;;;11.05;69.11
76132;BME280;64877;50.994;13.650;2024-02-21T09:44:33;99952.56;;;11.06;69.31
76132;BME280;64877;50.994;13.650;2024-02-21T09:47:03;99950.66;;;10.95;69.30
76132;BME280;64877;50.994;13.650;2024-02-21T09:49:31;99955.59;;;11.01;69.58
76132;BME280;64877;50.994;13.650;2024-02-21T09:52:00;99948.22;;;11.03;70.06
76132;BME280;64877;50.994;13.650;2024-02-21T09:54:28;99952.84;;;10.90;69.25
76132;BME280;64877;50.994;13.650;2024-02-21T09:56:54;99947.28;;;11.04;69.39
76132;BME280;64877;50.994;13.650;2024-02-21T09:59:19;99945.44;;;11.05;69.38
76132;BME280;64877;50.994;13.650;2024-02-21T10:01:45;99945.59;;;11.15;69.90
76132;BME280;64877;50.994;13.650;2024-02-21T10:04:13;99959.13;;;11.15;69.21
76132;BME280;64877;50.994;13.650;2024-02-21T10:06:39;99953.94;;;11.11;69.50
76132;BME280;64877;50.994;13.650;2024-02-21T10:09:07;99947.66;;;11.11;68.56
76132;BME280;64877;50.994;13.650;2024-02-21T10:11:33;99946.28;;;11.05;69.32
76132;BME280;64877;50.994;13.650;2024-02-21T10:14:05;99957.16;;;11.17;70.92
76132;BME280;64877;50.994;13.650;2024-02-21T10:16:31;99953.53;;;11.29;70.94
76132;BME280;64877;50.994;13.650;2024-02-21T10:18:56;99954.06;;;11.34;68.63
76132;BME280;64877;50.994;13.650;2024-02-21T10:21:22;99946.97;;;11.44;67.61
76132;BME280;64877;50.994;13.650;2024-02-21T10:23:51;99942.56;;;11.54;66.84
76132;BME280;64877;50.994;13.650;2024-02-21T10:26:20;99945.00;;;11.46;66.37
76132;BME280;64877;50.994;13.650;2024-02-21T10:28:47;99937.00;;;11.45;65.78
76132;BME280;64877;50.994;13.650;2024-02-21T10:33:55;99937.75;;;11.58;66.01
76132;BME280;64877;50.994;13.650;2024-02-21T10:36:21;99944.25;;;11.44;65.33
76132;BME280;64877;50.994;13.650;2024-02-21T10:38:46;99945.47;;;11.40;65.89
76132;BME280;64877;50.994;13.650;2024-02-21T10:41:14;99943.91;;;11.49;66.32
76132;BME280;64877;50.994;13.650;2024-02-21T10:43:48;99946.69;;;11.36;66.54
76132;BME280;64877;50.994;13.650;2024-02-21T10:46:18;99947.31;;;11.39;66.36
76132;BME280;64877;50.994;13.650;2024-02-21T10:48:47;99935.69;;;11.26;66.21
76132;BME280;64877;50.994;13.650;2024-02-21T10:51:17;99934.66;;;11.16;67.74
76132;BME280;64877;50.994;13.650;2024-02-21T10:54:15;99928.66;;;11.24;67.98
76132;BME280;64877;50.994;13.650;2024-02-21T10:56:45;99938.75;;;11.22;67.65
76132;BME280;64877;50.994;13.650;2024-02-21T10:59:13;99924.94;;;11.13;68.20
76132;BME280;64877;50.994;13.650;2024-02-21T11:01:39;99923.72;;;11.18;68.16
76132;BME280;64877;50.994;13.650;2024-02-21T11:04:06;99924.25;;;11.23;69.18
76132;BME280;64877;50.994;13.650;2024-02-21T11:06:33;99920.63;;;11.11;69.03
76132;BME280;64877;50.994;13.650;2024-02-21T11:09:03;99914.72;;;11.06;68.96
76132;BME280;64877;50.994;13.650;2024-02-21T11:11:33;99906.91;;;11.14;69.17
76132;BME280;64877;50.994;13.650;2024-02-21T11:14:17;99919.09;;;10.96;69.86
76132;BME280;64877;50.994;13.650;2024-02-21T11:16:43;99906.56;;;10.95;69.69
76132;BME280;64877;50.994;13.650;2024-02-21T11:19:19;99900.34;;;11.05;70.41
76132;BME280;64877;50.994;13.650;2024-02-21T11:21:45;99898.38;;;11.07;69.54
76132;BME280;64877;50.994;13.650;2024-02-21T11:24:10;99886.31;;;11.24;69.36
76132;BME280;64877;50.994;13.650;2024-02-21T11:26:37;99885.47;;;11.35;68.63
76132;BME280;64877;50.994;13.650;2024-02-21T11:29:03;99877.34;;;11.35;68.88
76132;BME280;64877;50.994;13.650;2024-02-21T11:31:39;99866.53;;;11.35;69.39
76132;BME280;64877;50.994;13.650;2024-02-21T11:34:11;99868.47;;;11.33;69.38
76132;BME280;64877;50.994;13.650;2024-02-21T11:36:49;99856.22;;;11.29;69.83
76132;BME280;64877;50.994;13.650;2024-02-21T11:39:23;99850.56;;;11.43;69.13
76132;BME280;64877;50.994;13.650;2024-02-21T11:42:19;99845.41;;;11.40;70.02
76132;BME280;64877;50.994;13.650;2024-02-21T11:44:45;99835.72;;;11.60;69.06
76132;BME280;64877;50.994;13.650;2024-02-21T11:47:10;99840.16;;;11.50;68.71
76132;BME280;64877;50.994;13.650;2024-02-21T11:49:45;99834.69;;;11.38;69.66
76132;BME280;64877;50.994;13.650;2024-02-21T11:52:11;99823.06;;;11.60;68.18
76132;BME280;64877;50.994;13.650;2024-02-21T11:54:37;99837.41;;;11.38;68.65
76132;BME280;64877;50.994;13.650;2024-02-21T11:57:02;99811.97;;;11.63;68.17
76132;BME280;64877;50.994;13.650;2024-02-21T11:59:33;99802.53;;;11.80;67.41
76132;BME280;64877;50.994;13.650;2024-02-21T12:02:01;99799.84;;;11.92;66.32
76132;BME280;64877;50.994;13.650;2024-02-21T12:04:28;99795.91;;;11.96;65.00
76132;BME280;64877;50.994;13.650;2024-02-21T12:06:56;99773.63;;;12.14;65.07
76132;BME280;64877;50.994;13.650;2024-02-21T12:09:23;99779.91;;;12.15;65.62
76132;BME280;64877;50.994;13.650;2024-02-21T12:12:05;99762.31;;;12.09;66.31
76132;BME280;64877;50.994;13.650;2024-02-21T12:14:33;99761.50;;;12.30;65.22
76132;BME280;64877;50.994;13.650;2024-02-21T12:17:00;99754.81;;;12.45;64.25
76132;BME280;64877;50.994;13.650;2024-02-21T12:19:29;99752.91;;;12.57;64.78
76132;BME280;64877;50.994;13.650;2024-02-21T12:21:54;99749.66;;;12.42;64.54
76132;BME280;64877;50.994;13.650;2024-02-21T12:24:25;99741.53;;;12.42;63.47
76132;BME280;64877;50.994;13.650;2024-02-21T12:26:51;99731.16;;;12.47;62.47
76132;BME280;64877;50.994;13.650;2024-02-21T12:29:20;99728.19;;;12.50;62.42
76132;BME280;64877;50.994;13.650;2024-02-21T12:31:46;99714.00;;;12.58;62.72
76132;BME280;64877;50.994;13.650;2024-02-21T12:34:12;99715.59;;;12.60;62.20
76132;BME280;64877;50.994;13.650;2024-02-21T12:36:42;99705.94;;;12.67;61.63
76132;BME280;64877;50.994;13.650;2024-02-21T12:39:09;99697.34;;;12.62;62.62
76132;BME280;64877;50.994;13.650;2024-02-21T12:41:35;99688.97;;;12.65;62.14
76132;BME280;64877;50.994;13.650;2024-02-21T12:44:07;99698.47;;;12.60;62.92
76132;BME280;64877;50.994;13.650;2024-02-21T12:46:33;99689.19;;;12.74;61.63
76132;BME280;64877;50.994;13.650;2024-02-21T12:48:59;99682.94;;;12.83;60.82
76132;BME280;64877;50.994;13.650;2024-02-21T12:51:24;99684.69;;;12.84;60.44